sensor_id;sensor_type;location;lat;lon;timestamp;temperature;humidity
43963;DHT22;29622;45.534;9.242;2023-07-22T00:02:27;25.50;55.60
43963;DHT22;29622;45.534;9.242;2023-07-22T00:07:28;25.50;55.60
43963;DHT22;29622;45.534;9.242;2023-07-22T00:12:28;25.60;55.50
43963;DHT22;29622;45.534;9.242;2023-07-22T00:17:29;25.60;55.50
43963;DHT22;29622;45.534;9.242;2023-07-22T00:22:30;25.50;55.60
43963;DHT22;29622;45.534;9.242;2023-07-22T00:27:30;25.30;55.80
43963;DHT22;29622;45.534;9.242;2023-07-22T00:32:31;25.20;56.00
43963;DHT22;29622;45.534;9.242;2023-07-22T00:37:32;25.10;56.30
43963;DHT22;29622;45.534;9.242;2023-07-22T00:42:33;25.10;56.50
43963;DHT22;29622;45.534;9.242;2023-07-22T00:47:35;25.00;56.60
43963;DHT22;29622;45.534;9.242;2023-07-22T00:52:37;25.00;56.90
43963;DHT22;29622;45.534;9.242;2023-07-22T00:57:38;25.20;57.00
43963;DHT22;29622;45.534;9.242;2023-07-22T01:02:40;25.50;57.00
43963;DHT22;29622;45.534;9.242;2023-07-22T01:07:41;26.20;56.00
43963;DHT22;29622;45.534;9.242;2023-07-22T01:12:44;26.20;55.40
43963;DHT22;29622;45.534;9.242;2023-07-22T01:17:45;26.10;55.60
43963;DHT22;29622;45.534;9.242;2023-07-22T01:22:52;26.50;55.30
43963;DHT22;29622;45.534;9.242;2023-07-22T01:27:54;26.80;54.40
43963;DHT22;29622;45.534;9.242;2023-07-22T01:32:54;26.60;54.40
43963;DHT22;29622;45.534;9.242;2023-07-22T01:37:55;26.50;54.70
43963;DHT22;29622;45.534;9.242;2023-07-22T01:42:56;27.10;54.40
43963;DHT22;29622;45.534;9.242;2023-07-22T01:47:57;27.30;53.70
43963;DHT22;29622;45.534;9.242;2023-07-22T01:52:58;26.80;53.60
43963;DHT22;29622;45.534;9.242;2023-07-22T01:57:58;26.40;54.00
43963;DHT22;29622;45.534;9.242;2023-07-22T02:02:59;26.00;54.50
43963;DHT22;29622;45.534;9.242;2023-07-22T02:08:01;25.70;54.80
43963;DHT22;29622;45.534;9.242;2023-07-22T02:13:01;25.50;55.10
43963;DHT22;29622;45.534;9.242;2023-07-22T02:18:05;25.40;55.50
43963;DHT22;29622;45.534;9.242;2023-07-22T02:23:05;25.20;55.70
43963;DHT22;29622;45.534;9.242;2023-07-22T02:28:06;25.10;56.00
43963;DHT22;29622;45.534;9.242;2023-07-22T02:33:08;25.00;56.20
43963;DHT22;29622;45.534;9.242;2023-07-22T02:38:09;25.00;56.50
43963;DHT22;29622;45.534;9.242;2023-07-22T02:43:10;25.00;56.70
43963;DHT22;29622;45.534;9.242;2023-07-22T02:48:11;25.00;57.00
43963;DHT22;29622;45.534;9.242;2023-07-22T02:53:11;25.10;57.00
43963;DHT22;29622;45.534;9.242;2023-07-22T02:58:12;25.10;56.90
43963;DHT22;29622;45.534;9.242;2023-07-22T03:03:13;25.10;57.10
43963;DHT22;29622;45.534;9.242;2023-07-22T03:08:14;25.20;57.10
43963;DHT22;29622;45.534;9.242;2023-07-22T03:13:15;25.20;56.90
43963;DHT22;29622;45.534;9.242;2023-07-22T03:18:16;25.20;57.10
43963;DHT22;29622;45.534;9.242;2023-07-22T03:23:17;25.10;57.20
43963;DHT22;29622;45.534;9.242;2023-07-22T03:28:18;25.20;57.30
43963;DHT22;29622;45.534;9.242;2023-07-22T03:33:18;25.20;57.30
43963;DHT22;29622;45.534;9.242;2023-07-22T03:38:19;25.20;57.20
43963;DHT22;29622;45.534;9.242;2023-07-22T03:43:20;25.10;57.20
43963;DHT22;29622;45.534;9.242;2023-07-22T03:48:21;25.00;57.30
43963;DHT22;29622;45.534;9.242;2023-07-22T03:53:22;25.00;57.50
43963;DHT22;29622;45.534;9.242;2023-07-22T03:58:22;24.90;57.60
43963;DHT22;29622;45.534;9.242;2023-07-22T04:03:23;24.90;57.60
43963;DHT22;29622;45.534;9.242;2023-07-22T04:08:24;24.80;57.60
43963;DHT22;29622;45.534;9.242;2023-07-22T04:13:25;24.80;57.60
43963;DHT22;29622;45.534;9.242;2023-07-22T04:18:27;24.70;57.60
43963;DHT22;29622;45.534;9.242;2023-07-22T04:23:33;24.80;57.60
43963;DHT22;29622;45.534;9.242;2023-07-22T04:28:34;24.80;57.70
43963;DHT22;29622;45.534;9.242;2023-07-22T04:33:35;25.10;57.80
43963;DHT22;29622;45.534;9.242;2023-07-22T04:38:36;25.50;57.10
43963;DHT22;29622;45.534;9.242;2023-07-22T04:43:37;25.40;56.80
43963;DHT22;29622;45.534;9.242;2023-07-22T04:48:39;25.30;56.70
43963;DHT22;29622;45.534;9.242;2023-07-22T04:53:39;25.20;56.80
43963;DHT22;29622;45.534;9.242;2023-07-22T04:58:40;25.10;56.90
43963;DHT22;29622;45.534;9.242;2023-07-22T05:03:40;25.00;57.10
43963;DHT22;29622;45.534;9.242;2023-07-22T05:08:41;25.00;57.20
43963;DHT22;29622;45.534;9.242;2023-07-22T05:13:43;25.10;57.40
43963;DHT22;29622;45.534;9.242;2023-07-22T05:18:43;25.30;57.30
43963;DHT22;29622;45.534;9.242;2023-07-22T05:23:44;25.30;57.20
43963;DHT22;29622;45.534;9.242;2023-07-22T05:28:45;25.30;57.20
43963;DHT22;29622;45.534;9.242;2023-07-22T05:33:45;25.30;57.20
43963;DHT22;29622;45.534;9.242;2023-07-22T05:38:47;25.40;57.10
43963;DHT22;29622;45.534;9.242;2023-07-22T05:43:48;25.60;57.20
43963;DHT22;29622;45.534;9.242;2023-07-22T05:48:48;25.70;57.20
43963;DHT22;29622;45.534;9.242;2023-07-22T05:53:49;26.00;57.10
43963;DHT22;29622;45.534;9.242;2023-07-22T05:58:50;26.50;56.50
43963;DHT22;29622;45.534;9.242;2023-07-22T06:03:51;26.90;55.70
43963;DHT22;29622;45.534;9.242;2023-07-22T06:08:51;27.00;55.40
43963;DHT22;29622;45.534;9.242;2023-07-22T06:13:52;27.10;55.00
43963;DHT22;29622;45.534;9.242;2023-07-22T06:18:56;27.20;54.60
43963;DHT22;29622;45.534;9.242;2023-07-22T06:23:57;27.20;54.10
43963;DHT22;29622;45.534;9.242;2023-07-22T06:28:57;27.20;53.80
43963;DHT22;29622;45.534;9.242;2023-07-22T06:33:58;27.10;53.70
43963;DHT22;29622;45.534;9.242;2023-07-22T06:39:02;27.10;53.50
43963;DHT22;29622;45.534;9.242;2023-07-22T06:44:02;27.10;53.50
43963;DHT22;29622;45.534;9.242;2023-07-22T06:49:03;27.20;53.40
43963;DHT22;29622;45.534;9.242;2023-07-22T06:54:04;27.20;53.20
43963;DHT22;29622;45.534;9.242;2023-07-22T06:59:04;27.50;53.20
43963;DHT22;29622;45.534;9.242;2023-07-22T07:04:05;27.90;52.80
43963;DHT22;29622;45.534;9.242;2023-07-22T07:09:06;28.30;52.40
43963;DHT22;29622;45.534;9.242;2023-07-22T07:14:07;28.40;51.90
43963;DHT22;29622;45.534;9.242;2023-07-22T07:19:08;28.30;51.80
43963;DHT22;29622;45.534;9.242;2023-07-22T07:24:08;28.30;51.90
43963;DHT22;29622;45.534;9.242;2023-07-22T07:29:09;28.30;51.90
43963;DHT22;29622;45.534;9.242;2023-07-22T07:34:10;28.30;51.80
43963;DHT22;29622;45.534;9.242;2023-07-22T07:39:11;28.30;51.80
43963;DHT22;29622;45.534;9.242;2023-07-22T07:44:11;28.40;51.80
43963;DHT22;29622;45.534;9.242;2023-07-22T07:49:12;28.50;51.50
43963;DHT22;29622;45.534;9.242;2023-07-22T07:54:13;28.50;51.30
43963;DHT22;29622;45.534;9.242;2023-07-22T07:59:13;28.50;51.20
43963;DHT22;29622;45.534;9.242;2023-07-22T08:04:14;28.60;51.20
43963;DHT22;29622;45.534;9.242;2023-07-22T08:09:19;28.50;51.10
43963;DHT22;29622;45.534;9.242;2023-07-22T08:14:21;28.40;51.00
43963;DHT22;29622;45.534;9.242;2023-07-22T08:19:23;28.30;51.20
43963;DHT22;29622;45.534;9.242;2023-07-22T08:24:23;28.30;51.30
43963;DHT22;29622;45.534;9.242;2023-07-22T08:29:24;28.50;51.30
43963;DHT22;29622;45.534;9.242;2023-07-22T08:34:25;28.60;51.10
43963;DHT22;29622;45.534;9.242;2023-07-22T08:39:26;28.70;50.80
43963;DHT22;29622;45.534;9.242;2023-07-22T08:44:32;28.90;50.70
43963;DHT22;29622;45.534;9.242;2023-07-22T08:49:36;29.10;50.20
43963;DHT22;29622;45.534;9.242;2023-07-22T08:54:37;28.90;50.10
43963;DHT22;29622;45.534;9.242;2023-07-22T08:59:38;28.60;50.50
43963;DHT22;29622;45.534;9.242;2023-07-22T09:04:39;28.70;50.70
43963;DHT22;29622;45.534;9.242;2023-07-22T09:09:44;28.80;50.60
43963;DHT22;29622;45.534;9.242;2023-07-22T09:14:46;29.00;50.50
43963;DHT22;29622;45.534;9.242;2023-07-22T09:19:52;29.30;50.10
43963;DHT22;29622;45.534;9.242;2023-07-22T09:25:12;29.60;49.60
43963;DHT22;29622;45.534;9.242;2023-07-22T09:35:22;29.80;48.90
43963;DHT22;29622;45.534;9.242;2023-07-22T09:40:26;29.80;48.70
43963;DHT22;29622;45.534;9.242;2023-07-22T09:45:30;29.90;48.90
43963;DHT22;29622;45.534;9.242;2023-07-22T09:50:31;30.00;48.70
43963;DHT22;29622;45.534;9.242;2023-07-22T09:55:33;30.20;48.40
43963;DHT22;29622;45.534;9.242;2023-07-22T10:00:34;30.20;48.00
43963;DHT22;29622;45.534;9.242;2023-07-22T10:05:37;30.00;47.70
43963;DHT22;29622;45.534;9.242;2023-07-22T10:10:38;30.00;47.80
43963;DHT22;29622;45.534;9.242;2023-07-22T10:15:39;30.10;47.70
43963;DHT22;29622;45.534;9.242;2023-07-22T10:20:41;30.20;47.90
43963;DHT22;29622;45.534;9.242;2023-07-22T10:25:42;30.30;47.80
43963;DHT22;29622;45.534;9.242;2023-07-22T10:30:43;30.40;47.80
43963;DHT22;29622;45.534;9.242;2023-07-22T10:36:02;30.50;47.50
43963;DHT22;29622;45.534;9.242;2023-07-22T10:41:12;30.60;46.70
43963;DHT22;29622;45.534;9.242;2023-07-22T10:46:13;30.60;46.80
43963;DHT22;29622;45.534;9.242;2023-07-22T10:51:15;30.50;46.90
43963;DHT22;29622;45.534;9.242;2023-07-22T10:56:19;30.60;47.10
43963;DHT22;29622;45.534;9.242;2023-07-22T11:06:29;30.90;46.90
43963;DHT22;29622;45.534;9.242;2023-07-22T11:11:40;31.00;47.00
43963;DHT22;29622;45.534;9.242;2023-07-22T11:16:46;31.00;46.60
43963;DHT22;29622;45.534;9.242;2023-07-22T11:21:48;31.00;46.70
43963;DHT22;29622;45.534;9.242;2023-07-22T11:26:50;31.00;46.50
43963;DHT22;29622;45.534;9.242;2023-07-22T11:31:51;31.00;46.50
43963;DHT22;29622;45.534;9.242;2023-07-22T11:36:53;31.00;46.70
43963;DHT22;29622;45.534;9.242;2023-07-22T11:41:54;31.10;46.50
43963;DHT22;29622;45.534;9.242;2023-07-22T11:46:57;31.20;46.30
43963;DHT22;29622;45.534;9.242;2023-07-22T11:52:06;31.20;45.80
43963;DHT22;29622;45.534;9.242;2023-07-22T11:57:20;31.30;45.70
43963;DHT22;29622;45.534;9.242;2023-07-22T12:02:25;31.30;45.30
43963;DHT22;29622;45.534;9.242;2023-07-22T12:07:28;31.40;45.40
43963;DHT22;29622;45.534;9.242;2023-07-22T12:12:36;31.40;45.20
43963;DHT22;29622;45.534;9.242;2023-07-22T12:17:51;31.50;45.20
43963;DHT22;29622;45.534;9.242;2023-07-22T12:22:52;31.60;45.00
43963;DHT22;29622;45.534;9.242;2023-07-22T12:27:53;31.60;44.90
43963;DHT22;29622;45.534;9.242;2023-07-22T12:32:54;31.70;44.90
43963;DHT22;29622;45.534;9.242;2023-07-22T12:37:54;31.80;45.00
43963;DHT22;29622;45.534;9.242;2023-07-22T12:42:55;31.90;44.90
43963;DHT22;29622;45.534;9.242;2023-07-22T12:47:56;31.90;44.70
43963;DHT22;29622;45.534;9.242;2023-07-22T12:52:56;31.90;44.50
43963;DHT22;29622;45.534;9.242;2023-07-22T12:57:57;32.00;44.70
43963;DHT22;29622;45.534;9.242;2023-07-22T13:02:58;32.10;44.70
43963;DHT22;29622;45.534;9.242;2023-07-22T13:07:58;32.20;44.60
43963;DHT22;29622;45.534;9.242;2023-07-22T13:13:01;32.30;44.80
43963;DHT22;29622;45.534;9.242;2023-07-22T13:18:02;32.30;44.60
43963;DHT22;29622;45.534;9.242;2023-07-22T13:23:03;32.40;44.50
43963;DHT22;29622;45.534;9.242;2023-07-22T13:28:03;32.50;44.20
43963;DHT22;29622;45.534;9.242;2023-07-22T13:33:04;32.50;44.10
43963;DHT22;29622;45.534;9.242;2023-07-22T13:38:05;32.50;43.80
43963;DHT22;29622;45.534;9.242;2023-07-22T13:43:05;32.60;43.80
43963;DHT22;29622;45.534;9.242;2023-07-22T13:48:06;32.60;43.90
43963;DHT22;29622;45.534;9.242;2023-07-22T13:53:06;32.60;43.60
43963;DHT22;29622;45.534;9.242;2023-07-22T13:58:07;32.70;43.70
43963;DHT22;29622;45.534;9.242;2023-07-22T14:03:08;32.70;43.60
43963;DHT22;29622;45.534;9.242;2023-07-22T14:08:08;32.80;43.40
43963;DHT22;29622;45.534;9.242;2023-07-22T14:13:09;32.90;43.40
43963;DHT22;29622;45.534;9.242;2023-07-22T14:18:09;32.90;43.40
43963;DHT22;29622;45.534;9.242;2023-07-22T14:23:10;33.00;43.50
43963;DHT22;29622;45.534;9.242;2023-07-22T14:28:11;33.10;43.40
43963;DHT22;29622;45.534;9.242;2023-07-22T14:33:12;33.10;43.10
43963;DHT22;29622;45.534;9.242;2023-07-22T14:38:13;33.20;42.80
43963;DHT22;29622;45.534;9.242;2023-07-22T14:43:13;33.30;42.80
43963;DHT22;29622;45.534;9.242;2023-07-22T14:48:14;33.30;42.90
43963;DHT22;29622;45.534;9.242;2023-07-22T14:53:15;33.50;43.00
43963;DHT22;29622;45.534;9.242;2023-07-22T14:58:15;33.60;42.80
43963;DHT22;29622;45.534;9.242;2023-07-22T15:03:16;33.60;42.70
43963;DHT22;29622;45.534;9.242;2023-07-22T15:08:17;33.70;42.70
43963;DHT22;29622;45.534;9.242;2023-07-22T15:13:17;33.80;42.70
43963;DHT22;29622;45.534;9.242;2023-07-22T15:18:18;33.80;42.30
43963;DHT22;29622;45.534;9.242;2023-07-22T15:23:19;34.00;42.10
43963;DHT22;29622;45.534;9.242;2023-07-22T15:28:20;34.00;41.90
43963;DHT22;29622;45.534;9.242;2023-07-22T15:33:21;34.20;42.00
43963;DHT22;29622;45.534;9.242;2023-07-22T15:38:22;34.20;41.70
43963;DHT22;29622;45.534;9.242;2023-07-22T15:43:22;34.40;41.30
43963;DHT22;29622;45.534;9.242;2023-07-22T15:48:23;34.60;41.10
43963;DHT22;29622;45.534;9.242;2023-07-22T15:53:24;34.80;41.00
43963;DHT22;29622;45.534;9.242;2023-07-22T15:58:24;34.90;40.90
43963;DHT22;29622;45.534;9.242;2023-07-22T16:03:25;35.00;41.00
43963;DHT22;29622;45.534;9.242;2023-07-22T16:08:26;35.10;40.90
43963;DHT22;29622;45.534;9.242;2023-07-22T16:13:26;35.10;40.50
43963;DHT22;29622;45.534;9.242;2023-07-22T16:18:27;35.10;40.40
43963;DHT22;29622;45.534;9.242;2023-07-22T16:23:28;35.10;40.60
43963;DHT22;29622;45.534;9.242;2023-07-22T16:28:28;35.00;40.80
43963;DHT22;29622;45.534;9.242;2023-07-22T16:33:29;34.90;40.80
43963;DHT22;29622;45.534;9.242;2023-07-22T16:38:29;34.90;40.80
43963;DHT22;29622;45.534;9.242;2023-07-22T16:43:31;34.80;40.60
43963;DHT22;29622;45.534;9.242;2023-07-22T16:48:32;34.80;40.70
43963;DHT22;29622;45.534;9.242;2023-07-22T16:53:33;34.70;40.90
43963;DHT22;29622;45.534;9.242;2023-07-22T16:58:33;34.70;41.10
43963;DHT22;29622;45.534;9.242;2023-07-22T17:03:35;34.60;41.10
43963;DHT22;29622;45.534;9.242;2023-07-22T17:08:36;34.50;41.20
43963;DHT22;29622;45.534;9.242;2023-07-22T17:13:36;34.40;41.50
43963;DHT22;29622;45.534;9.242;2023-07-22T17:18:37;34.20;41.50
43963;DHT22;29622;45.534;9.242;2023-07-22T17:23:40;34.20;41.50
43963;DHT22;29622;45.534;9.242;2023-07-22T17:28:40;34.10;41.50
43963;DHT22;29622;45.534;9.242;2023-07-22T17:33:41;34.00;41.40
43963;DHT22;29622;45.534;9.242;2023-07-22T17:38:42;33.90;41.70
43963;DHT22;29622;45.534;9.242;2023-07-22T17:43:43;33.80;41.70
43963;DHT22;29622;45.534;9.242;2023-07-22T17:48:43;33.70;41.70
43963;DHT22;29622;45.534;9.242;2023-07-22T17:53:44;33.40;42.00
43963;DHT22;29622;45.534;9.242;2023-07-22T17:58:45;33.30;42.30
43963;DHT22;29622;45.534;9.242;2023-07-22T18:03:45;33.10;42.20
43963;DHT22;29622;45.534;9.242;2023-07-22T18:08:46;33.00;42.50
43963;DHT22;29622;45.534;9.242;2023-07-22T18:13:46;32.80;42.60
43963;DHT22;29622;45.534;9.242;2023-07-22T18:18:49;32.70;42.60
43963;DHT22;29622;45.534;9.242;2023-07-22T18:23:50;32.50;42.80
43963;DHT22;29622;45.534;9.242;2023-07-22T18:28:50;32.30;43.20
43963;DHT22;29622;45.534;9.242;2023-07-22T18:33:51;32.30;43.30
43963;DHT22;29622;45.534;9.242;2023-07-22T18:38:51;32.20;43.30
43963;DHT22;29622;45.534;9.242;2023-07-22T18:43:52;32.00;43.40
43963;DHT22;29622;45.534;9.242;2023-07-22T18:48:53;31.90;43.70
43963;DHT22;29622;45.534;9.242;2023-07-22T18:53:53;31.80;43.80
43963;DHT22;29622;45.534;9.242;2023-07-22T18:58:54;31.70;44.10
43963;DHT22;29622;45.534;9.242;2023-07-22T19:03:57;31.50;44.30
43963;DHT22;29622;45.534;9.242;2023-07-22T19:08:58;31.50;44.40
43963;DHT22;29622;45.534;9.242;2023-07-22T19:13:58;31.40;44.30
43963;DHT22;29622;45.534;9.242;2023-07-22T19:18:59;31.30;44.50
43963;DHT22;29622;45.534;9.242;2023-07-22T19:24:00;31.10;44.60
43963;DHT22;29622;45.534;9.242;2023-07-22T19:29:00;31.00;44.90
43963;DHT22;29622;45.534;9.242;2023-07-22T19:34:01;31.00;45.20
43963;DHT22;29622;45.534;9.242;2023-07-22T19:39:02;31.10;45.00
43963;DHT22;29622;45.534;9.242;2023-07-22T19:44:03;30.90;45.20
43963;DHT22;29622;45.534;9.242;2023-07-22T19:49:03;30.90;45.30
43963;DHT22;29622;45.534;9.242;2023-07-22T19:54:04;30.80;45.40
43963;DHT22;29622;45.534;9.242;2023-07-22T19:59:05;30.60;45.50
43963;DHT22;29622;45.534;9.242;2023-07-22T20:04:06;30.50;45.80
43963;DHT22;29622;45.534;9.242;2023-07-22T20:09:06;30.40;45.90
43963;DHT22;29622;45.534;9.242;2023-07-22T20:14:07;30.30;46.10
43963;DHT22;29622;45.534;9.242;2023-07-22T20:19:08;30.20;46.20
43963;DHT22;29622;45.534;9.242;2023-07-22T20:24:08;30.10;46.20
43963;DHT22;29622;45.534;9.242;2023-07-22T20:29:09;30.00;46.50
43963;DHT22;29622;45.534;9.242;2023-07-22T20:34:09;30.00;46.60
43963;DHT22;29622;45.534;9.242;2023-07-22T20:39:10;30.00;46.80
43963;DHT22;29622;45.534;9.242;2023-07-22T20:44:11;29.90;46.80
43963;DHT22;29622;45.534;9.242;2023-07-22T20:49:12;29.80;47.00
43963;DHT22;29622;45.534;9.242;2023-07-22T20:54:12;29.80;47.20
43963;DHT22;29622;45.534;9.242;2023-07-22T20:59:13;29.80;47.30
43963;DHT22;29622;45.534;9.242;2023-07-22T21:04:14;29.70;47.40
43963;DHT22;29622;45.534;9.242;2023-07-22T21:09:15;29.70;47.70
43963;DHT22;29622;45.534;9.242;2023-07-22T21:14:15;29.80;47.70
43963;DHT22;29622;45.534;9.242;2023-07-22T21:19:17;29.80;47.70
43963;DHT22;29622;45.534;9.242;2023-07-22T21:24:21;29.70;47.70
43963;DHT22;29622;45.534;9.242;2023-07-22T21:29:23;29.70;47.80
43963;DHT22;29622;45.534;9.242;2023-07-22T21:34:23;29.50;47.90
43963;DHT22;29622;45.534;9.242;2023-07-22T21:39:24;29.40;48.10
43963;DHT22;29622;45.534;9.242;2023-07-22T21:44:26;29.40;48.30
43963;DHT22;29622;45.534;9.242;2023-07-22T21:49:27;29.40;48.30
43963;DHT22;29622;45.534;9.242;2023-07-22T21:54:28;29.40;48.50
43963;DHT22;29622;45.534;9.242;2023-07-22T21:59:28;29.40;48.60
43963;DHT22;29622;45.534;9.242;2023-07-22T22:04:29;29.30;48.70
43963;DHT22;29622;45.534;9.242;2023-07-22T22:09:29;29.20;48.80
43963;DHT22;29622;45.534;9.242;2023-07-22T22:14:30;29.20;48.90
43963;DHT22;29622;45.534;9.242;2023-07-22T22:19:30;29.20;49.00
43963;DHT22;29622;45.534;9.242;2023-07-22T22:24:31;29.20;49.10
43963;DHT22;29622;45.534;9.242;2023-07-22T22:29:32;29.20;49.20
43963;DHT22;29622;45.534;9.242;2023-07-22T22:34:33;29.40;49.10
43963;DHT22;29622;45.534;9.242;2023-07-22T22:39:34;29.70;48.90
43963;DHT22;29622;45.534;9.242;2023-07-22T22:44:35;29.80;48.70
43963;DHT22;29622;45.534;9.242;2023-07-22T22:49:35;30.00;48.50
43963;DHT22;29622;45.534;9.242;2023-07-22T22:54:36;30.20;48.20
43963;DHT22;29622;45.534;9.242;2023-07-22T22:59:37;30.30;48.10
43963;DHT22;29622;45.534;9.242;2023-07-22T23:04:37;30.30;48.10
43963;DHT22;29622;45.534;9.242;2023-07-22T23:09:38;30.30;48.00
43963;DHT22;29622;45.534;9.242;2023-07-22T23:14:40;30.40;48.00
43963;DHT22;29622;45.534;9.242;2023-07-22T23:19:42;30.40;47.80
43963;DHT22;29622;45.534;9.242;2023-07-22T23:24:42;30.50;47.70
43963;DHT22;29622;45.534;9.242;2023-07-22T23:29:43;30.50;47.60
43963;DHT22;29622;45.534;9.242;2023-07-22T23:34:44;30.40;47.60
43963;DHT22;29622;45.534;9.242;2023-07-22T23:39:44;30.40;47.60
43963;DHT22;29622;45.534;9.242;2023-07-22T23:44:45;30.30;47.70
43963;DHT22;29622;45.534;9.242;2023-07-22T23:49:46;30.00;47.90
43963;DHT22;29622;45.534;9.242;2023-07-22T23:54:46;30.00;48.00
43963;DHT22;29622;45.534;9.242;2023-07-22T23:59:47;29.90;48.10
